Time;durP1;ratioP1;P1;durP2;ratioP2;P2;SDS_P1;SDS_P2;PMS_P1;PMS_P2;Temp;Humidity;BMP_temperature;BMP_pressure;BME280_temperature;BME280_humidity;BME280_pressure;Samples;Min_cycle;Max_cycle;Signal;HPM_P1;HPM_P2
2024/05/01 00:00:18;;;;;;;11.35;10.85;;;;;;;;;;5417077;26;20224;-67
2024/05/01 00:02:43;;;;;;;11.07;10.57;;;;;;;;;;5403902;26;20049;-69
2024/05/01 00:05:09;;;;;;;11.10;10.60;;;;;;;;;;5376592;26;20453;-69
2024/05/01 00:07:34;;;;;;;11.18;10.68;;;;;;;;;;5402695;26;20024;-68
2024/05/01 00:09:59;;;;;;;11.25;10.75;;;;;;;;;;5399764;26;20018;-69
2024/05/01 00:12:25;;;;;;;11.30;10.80;;;;;;;;;;5414586;26;20004;-69
2024/05/01 00:14:50;;;;;;;11.05;10.55;;;;;;;;;;5414330;26;20448;-69
2024/05/01 00:17:16;;;;;;;11.27;10.77;;;;;;;;;;5407627;26;20014;-70
2024/05/01 00:19:41;;;;;;;11.25;10.75;;;;;;;;;;5415203;26;20568;-69
2024/05/01 00:22:07;;;;;;;11.38;10.88;;;;;;;;;;5412112;26;20076;-69
2024/05/01 00:24:32;;;;;;;11.13;10.63;;;;;;;;;;5409694;26;20000;-69
2024/05/01 00:26:57;;;;;;;11.35;10.85;;;;;;;;;;5414081;26;20002;-69
2024/05/01 00:29:23;;;;;;;11.60;11.10;;;;;;;;;;5414742;26;19991;-68
2024/05/01 00:31:49;;;;;;;11.35;10.85;;;;;;;;;;5414060;26;20014;-69
2024/05/01 00:34:14;;;;;;;10.85;10.35;;;;;;;;;;5407209;26;20080;-69
2024/05/01 00:36:40;;;;;;;10.82;10.32;;;;;;;;;;5413365;26;19996;-69
2024/05/01 00:39:06;;;;;;;10.80;10.30;;;;;;;;;;5414065;26;20032;-69
2024/05/01 00:41:31;;;;;;;10.90;10.40;;;;;;;;;;5413890;26;20006;-69
2024/05/01 00:43:56;;;;;;;11.20;10.70;;;;;;;;;;5410846;26;20013;-69
2024/05/01 00:46:22;;;;;;;11.45;10.95;;;;;;;;;;5413686;26;19992;-69
2024/05/01 00:48:48;;;;;;;11.50;11.00;;;;;;;;;;5415923;26;20011;-69
2024/05/01 00:51:14;;;;;;;11.18;10.68;;;;;;;;;;5413285;26;20045;-69
2024/05/01 00:53:40;;;;;;;11.15;10.65;;;;;;;;;;5401311;26;20000;-69
2024/05/01 00:56:07;;;;;;;11.02;10.52;;;;;;;;;;5413754;26;19999;-69
2024/05/01 00:58:32;;;;;;;12.02;11.43;;;;;;;;;;5413551;26;19999;-69
2024/05/01 01:00:58;;;;;;;11.23;10.73;;;;;;;;;;5413240;26;20002;-69
2024/05/01 01:03:23;;;;;;;11.05;10.55;;;;;;;;;;5407415;26;20007;-68
2024/05/01 01:05:49;;;;;;;11.00;10.50;;;;;;;;;;5394787;26;19995;-68
2024/05/01 01:08:16;;;;;;;11.05;10.55;;;;;;;;;;5413132;26;20007;-68
2024/05/01 01:10:42;;;;;;;10.82;10.32;;;;;;;;;;5413465;26;20000;-68
2024/05/01 01:13:07;;;;;;;11.10;10.60;;;;;;;;;;5415985;26;20011;-68
2024/05/01 01:15:33;;;;;;;11.07;10.57;;;;;;;;;;5408508;26;19999;-68
2024/05/01 01:17:59;;;;;;;11.20;10.70;;;;;;;;;;5413443;26;19999;-69
2024/05/01 01:20:24;;;;;;;11.20;10.70;;;;;;;;;;5414212;26;20046;-69
2024/05/01 01:22:49;;;;;;;11.15;10.65;;;;;;;;;;5409677;26;20010;-69
2024/05/01 01:25:15;;;;;;;10.95;10.45;;;;;;;;;;5413138;26;20010;-68
2024/05/01 01:27:40;;;;;;;11.00;10.50;;;;;;;;;;5412762;26;20011;-68
2024/05/01 01:30:07;;;;;;;10.73;10.23;;;;;;;;;;5408251;26;20007;-68
2024/05/01 01:32:33;;;;;;;11.07;10.57;;;;;;;;;;5382948;26;20000;-67
2024/05/01 01:34:58;;;;;;;11.18;10.68;;;;;;;;;;5397189;26;19996;-69
2024/05/01 01:37:23;;;;;;;10.88;10.38;;;;;;;;;;5413930;26;19987;-69
2024/05/01 01:39:49;;;;;;;10.95;10.45;;;;;;;;;;5412748;26;20030;-70
2024/05/01 01:42:14;;;;;;;11.20;10.70;;;;;;;;;;5410468;26;19991;-69
2024/05/01 01:44:40;;;;;;;10.77;10.27;;;;;;;;;;5402857;26;19999;-69
2024/05/01 01:47:05;;;;;;;10.80;10.30;;;;;;;;;;5412892;26;20448;-68
2024/05/01 01:49:30;;;;;;;11.43;10.93;;;;;;;;;;5412463;26;20011;-69
2024/05/01 01:51:56;;;;;;;11.10;10.60;;;;;;;;;;5411783;26;20085;-69
2024/05/01 01:54:21;;;;;;;11.23;10.73;;;;;;;;;;5421622;26;19998;-68
2024/05/01 01:56:47;;;;;;;10.98;10.48;;;;;;;;;;5389092;26;20000;-68
2024/05/01 01:59:13;;;;;;;10.90;10.40;;;;;;;;;;5411955;26;20374;-69
2024/05/01 02:01:38;;;;;;;10.75;10.25;;;;;;;;;;5412392;26;20053;-67
2024/05/01 02:04:04;;;;;;;10.90;10.40;;;;;;;;;;5409840;26;20447;-69
2024/05/01 02:06:29;;;;;;;10.95;10.45;;;;;;;;;;5416518;26;19995;-69
2024/05/01 02:08:55;;;;;;;10.98;10.48;;;;;;;;;;5414474;26;20472;-69
2024/05/01 02:11:20;;;;;;;11.38;10.88;;;;;;;;;;5425990;26;20006;-68
2024/05/01 02:13:45;;;;;;;11.00;10.50;;;;;;;;;;5415475;26;20333;-68
2024/05/01 02:16:12;;;;;;;10.70;10.20;;;;;;;;;;5416061;26;19999;-68
2024/05/01 02:18:37;;;;;;;10.77;10.27;;;;;;;;;;5419716;26;20011;-69
2024/05/01 02:21:03;;;;;;;10.98;10.48;;;;;;;;;;5431309;26;20007;-69
2024/05/01 02:23:28;;;;;;;10.70;10.20;;;;;;;;;;5423137;26;20016;-68
2024/05/01 02:25:54;;;;;;;10.95;10.45;;;;;;;;;;5356951;26;20000;-68
2024/05/01 02:28:19;;;;;;;10.85;10.35;;;;;;;;;;5418303;26;19996;-68
2024/05/01 02:30:45;;;;;;;10.68;10.18;;;;;;;;;;5406972;26;20007;-67
2024/05/01 02:33:13;;;;;;;10.93;10.43;;;;;;;;;;5401939;26;20000;-69
2024/05/01 02:35:39;;;;;;;10.77;10.27;;;;;;;;;;5406179;26;20080;-68
2024/05/01 02:38:04;;;;;;;10.80;10.30;;;;;;;;;;5415161;26;20000;-69
2024/05/01 02:40:30;;;;;;;11.32;10.82;;;;;;;;;;5411038;26;20483;-69
2024/05/01 02:42:55;;;;;;;11.27;10.77;;;;;;;;;;5415190;26;19996;-69
2024/05/01 02:45:21;;;;;;;11.25;10.75;;;;;;;;;;5425889;26;19998;-68
2024/05/01 02:47:46;;;;;;;10.98;10.48;;;;;;;;;;5415329;26;19996;-69
2024/05/01 02:50:11;;;;;;;10.60;10.10;;;;;;;;;;5415272;26;20079;-68
2024/05/01 02:52:37;;;;;;;10.90;10.40;;;;;;;;;;5415420;26;20000;-68
2024/05/01 02:55:02;;;;;;;11.15;10.65;;;;;;;;;;5403040;26;20095;-68
2024/05/01 02:57:28;;;;;;;10.98;10.48;;;;;;;;;;5414847;26;20018;-68
2024/05/01 02:59:53;;;;;;;11.05;10.55;;;;;;;;;;5415067;26;20093;-68
2024/05/01 03:02:18;;;;;;;10.85;10.35;;;;;;;;;;5392728;26;20015;-68
2024/05/01 03:04:44;;;;;;;10.88;10.38;;;;;;;;;;5401343;26;20015;-69
2024/05/01 03:07:09;;;;;;;10.68;10.18;;;;;;;;;;5409043;26;20009;-68
2024/05/01 03:09:35;;;;;;;10.95;10.45;;;;;;;;;;5424924;26;19999;-68
2024/05/01 03:12:00;;;;;;;10.90;10.40;;;;;;;;;;5415381;26;19991;-69
2024/05/01 03:14:26;;;;;;;10.93;10.43;;;;;;;;;;5385545;26;20051;-68
2024/05/01 03:16:52;;;;;;;10.88;10.38;;;;;;;;;;5410336;26;20011;-68
2024/05/01 03:19:19;;;;;;;10.70;10.20;;;;;;;;;;5392178;26;20080;-68
2024/05/01 03:21:44;;;;;;;10.90;10.40;;;;;;;;;;5401094;26;20016;-70
2024/05/01 03:24:10;;;;;;;10.93;10.43;;;;;;;;;;5413309;26;19995;-69
2024/05/01 03:26:35;;;;;;;10.75;10.25;;;;;;;;;;5413211;26;20040;-70
2024/05/01 03:29:01;;;;;;;11.20;10.70;;;;;;;;;;5414896;26;20073;-69
2024/05/01 03:31:26;;;;;;;11.30;10.80;;;;;;;;;;5414452;26;20010;-69
2024/05/01 03:33:52;;;;;;;11.43;10.93;;;;;;;;;;5427851;26;20061;-70
2024/05/01 03:36:17;;;;;;;11.32;10.82;;;;;;;;;;5385165;26;20011;-70
2024/05/01 03:38:42;;;;;;;11.32;10.82;;;;;;;;;;5399814;26;20072;-70
2024/05/01 03:41:17;;;;;;;11.68;11.18;;;;;;;;;;5414361;26;20083;-70
2024/05/01 03:43:43;;;;;;;11.90;11.40;;;;;;;;;;5414242;26;20004;-69
2024/05/01 03:46:09;;;;;;;11.60;11.10;;;;;;;;;;5416356;26;20003;-69
2024/05/01 03:48:34;;;;;;;11.90;11.40;;;;;;;;;;5423996;26;20497;-68
2024/05/01 03:51:04;;;;;;;11.88;11.38;;;;;;;;;;5414632;26;20006;-68
2024/05/01 03:53:29;;;;;;;12.10;11.60;;;;;;;;;;5420323;26;20003;-68
2024/05/01 03:55:55;;;;;;;11.98;11.48;;;;;;;;;;5411336;26;20014;-69
2024/05/01 03:58:20;;;;;;;12.27;11.77;;;;;;;;;;5412461;26;20018;-68
2024/05/01 04:00:46;;;;;;;12.18;11.68;;;;;;;;;;5413575;26;20011;-68
2024/05/01 04:03:12;;;;;;;12.13;11.63;;;;;;;;;;5409177;26;20007;-68
2024/05/01 04:05:37;;;;;;;12.30;11.80;;;;;;;;;;5401758;26;20010;-68
2024/05/01 04:08:03;;;;;;;12.57;11.98;;;;;;;;;;5418456;26;20464;-68
2024/05/01 04:10:28;;;;;;;12.20;11.70;;;;;;;;;;5415525;26;19999;-68
2024/05/01 04:12:54;;;;;;;12.15;11.65;;;;;;;;;;5414200;26;19999;-68
2024/05/01 04:15:19;;;;;;;12.63;12.02;;;;;;;;;;5408377;26;19999;-68
2024/05/01 04:17:44;;;;;;;12.50;11.93;;;;;;;;;;5398504;26;20010;-66
2024/05/01 04:20:10;;;;;;;12.75;12.15;;;;;;;;;;5414418;26;20464;-68
2024/05/01 04:22:35;;;;;;;12.50;11.93;;;;;;;;;;5389668;26;20025;-69
2024/05/01 04:25:01;;;;;;;12.30;11.80;;;;;;;;;;5407920;26;20076;-69
2024/05/01 04:27:26;;;;;;;12.32;11.82;;;;;;;;;;5400623;26;20004;-69
2024/05/01 04:29:51;;;;;;;12.40;11.85;;;;;;;;;;5413699;26;20011;-70
2024/05/01 04:32:17;;;;;;;12.77;12.18;;;;;;;;;;5413518;26;20783;-69
2024/05/01 04:34:42;;;;;;;12.63;12.02;;;;;;;;;;5413715;26;19999;-69
2024/05/01 04:37:08;;;;;;;12.95;12.35;;;;;;;;;;5398522;26;20514;-68
2024/05/01 04:39:33;;;;;;;12.88;12.27;;;;;;;;;;5414856;26;20424;-69
2024/05/01 04:41:58;;;;;;;13.05;12.45;;;;;;;;;;5394679;26;20010;-70
2024/05/01 04:44:24;;;;;;;12.80;12.20;;;;;;;;;;5416339;26;20003;-70
2024/05/01 04:46:49;;;;;;;13.05;12.45;;;;;;;;;;5381454;26;20015;-69
2024/05/01 04:49:15;;;;;;;12.90;12.30;;;;;;;;;;5417367;26;20015;-69
2024/05/01 04:51:40;;;;;;;12.82;12.23;;;;;;;;;;5413407;26;20018;-69
2024/05/01 04:54:07;;;;;;;12.85;12.25;;;;;;;;;;5438119;26;20069;-69
2024/05/01 04:56:32;;;;;;;13.18;12.57;;;;;;;;;;5414864;26;20010;-70
2024/05/01 04:58:57;;;;;;;13.13;12.52;;;;;;;;;;5411308;26;20031;-70
2024/05/01 05:01:23;;;;;;;13.25;12.65;;;;;;;;;;5397274;26;20028;-70
2024/05/01 05:03:49;;;;;;;13.20;12.60;;;;;;;;;;5385624;26;20098;-70
2024/05/01 05:06:14;;;;;;;13.27;12.68;;;;;;;;;;5398778;26;20012;-68
2024/05/01 05:08:40;;;;;;;13.05;12.45;;;;;;;;;;5374612;26;20025;-69
2024/05/01 05:11:05;;;;;;;13.20;12.60;;;;;;;;;;5413728;26;20003;-69
2024/05/01 05:13:30;;;;;;;13.30;12.70;;;;;;;;;;5410461;26;19999;-69
2024/05/01 05:15:56;;;;;;;13.23;12.63;;;;;;;;;;5403426;26;19999;-69
2024/05/01 05:18:21;;;;;;;13.25;12.65;;;;;;;;;;5406781;26;20014;-68
2024/05/01 05:20:47;;;;;;;13.38;12.77;;;;;;;;;;5399428;26;20004;-68
2024/05/01 05:23:12;;;;;;;13.25;12.65;;;;;;;;;;5412889;26;20542;-69
2024/05/01 05:25:38;;;;;;;13.27;12.68;;;;;;;;;;5410792;26;19992;-69
2024/05/01 05:28:03;;;;;;;13.27;12.68;;;;;;;;;;5405677;26;19996;-70
2024/05/01 05:30:29;;;;;;;13.27;12.68;;;;;;;;;;5412517;26;20035;-69
2024/05/01 05:32:54;;;;;;;13.18;12.57;;;;;;;;;;5412491;26;20471;-67
2024/05/01 05:35:19;;;;;;;13.38;12.77;;;;;;;;;;5413837;26;19999;-70
2024/05/01 05:37:45;;;;;;;13.10;12.50;;;;;;;;;;5407679;26;20122;-69
2024/05/01 05:40:10;;;;;;;13.10;12.50;;;;;;;;;;5403699;26;20003;-69
2024/05/01 05:42:36;;;;;;;12.95;12.35;;;;;;;;;;5384213;26;20003;-70
2024/05/01 05:45:02;;;;;;;13.15;12.55;;;;;;;;;;5414448;26;20048;-70
2024/05/01 05:47:27;;;;;;;13.25;12.65;;;;;;;;;;5414927;26;19995;-70
2024/05/01 05:49:53;;;;;;;13.32;12.73;;;;;;;;;;5416134;26;20003;-70
2024/05/01 05:52:20;;;;;;;12.95;12.35;;;;;;;;;;5422201;26;20350;-70
2024/05/01 05:54:46;;;;;;;13.10;12.50;;;;;;;;;;5393246;26;20082;-69
2024/05/01 05:57:11;;;;;;;13.27;12.68;;;;;;;;;;5397329;26;20000;-69
2024/05/01 05:59:37;;;;;;;13.32;12.73;;;;;;;;;;5384628;26;19999;-69
2024/05/01 06:02:04;;;;;;;13.30;12.70;;;;;;;;;;5418421;26;20723;-68
2024/05/01 06:04:29;;;;;;;13.32;12.73;;;;;;;;;;5408802;26;20338;-69
2024/05/01 06:06:54;;;;;;;13.30;12.70;;;;;;;;;;5409225;26;20035;-69
2024/05/01 06:09:20;;;;;;;13.30;12.70;;;;;;;;;;5415979;26;19995;-69
2024/05/01 06:11:45;;;;;;;13.07;12.48;;;;;;;;;;5410300;26;19996;-69
2024/05/01 06:14:11;;;;;;;13.20;12.60;;;;;;;;;;5415801;26;20081;-69
2024/05/01 06:16:36;;;;;;;13.40;12.80;;;;;;;;;;5409035;26;20006;-69
2024/05/01 06:19:01;;;;;;;13.35;12.75;;;;;;;;;;5415263;26;20476;-70
2024/05/01 06:21:27;;;;;;;13.20;12.60;;;;;;;;;;5415677;26;19995;-70
2024/05/01 06:23:52;;;;;;;13.30;12.70;;;;;;;;;;5392872;26;20009;-70
2024/05/01 06:26:19;;;;;;;13.20;12.60;;;;;;;;;;5427787;26;20098;-69
2024/05/01 06:28:45;;;;;;;13.15;12.55;;;;;;;;;;5415077;26;20624;-69
2024/05/01 06:31:10;;;;;;;13.27;12.68;;;;;;;;;;5415188;26;20003;-70
2024/05/01 06:33:36;;;;;;;13.18;12.57;;;;;;;;;;5415947;26;20351;-70
2024/05/01 06:36:01;;;;;;;13.32;12.73;;;;;;;;;;5415358;26;19996;-68
2024/05/01 06:38:26;;;;;;;13.23;12.63;;;;;;;;;;5394897;26;20228;-69
2024/05/01 06:40:52;;;;;;;13.30;12.70;;;;;;;;;;5408218;26;20015;-69
2024/05/01 06:43:17;;;;;;;13.27;12.68;;;;;;;;;;5416164;26;20011;-69
2024/05/01 06:45:43;;;;;;;13.25;12.65;;;;;;;;;;5415667;26;20012;-69
2024/05/01 06:48:08;;;;;;;13.00;12.40;;;;;;;;;;5420576;26;20365;-69
2024/05/01 06:50:33;;;;;;;12.75;12.15;;;;;;;;;;5410351;26;19992;-68
2024/05/01 06:52:59;;;;;;;13.10;12.50;;;;;;;;;;5413152;26;20484;-69
2024/05/01 06:55:24;;;;;;;13.10;12.50;;;;;;;;;;5415171;26;20006;-69
2024/05/01 06:57:50;;;;;;;12.95;12.35;;;;;;;;;;5410678;26;20351;-69
2024/05/01 07:00:15;;;;;;;13.40;12.80;;;;;;;;;;5416845;26;19992;-70
2024/05/01 07:02:40;;;;;;;13.10;12.50;;;;;;;;;;5414754;26;20451;-69
2024/05/01 07:05:06;;;;;;;13.20;12.60;;;;;;;;;;5414804;26;20010;-69
2024/05/01 07:07:31;;;;;;;13.15;12.55;;;;;;;;;;5402085;26;19996;-69
2024/05/01 07:09:57;;;;;;;13.40;12.80;;;;;;;;;;5416015;26;20081;-69
2024/05/01 07:12:22;;;;;;;13.18;12.57;;;;;;;;;;5414625;26;20007;-68
2024/05/01 07:14:48;;;;;;;13.05;12.45;;;;;;;;;;5415532;26;20007;-69
2024/05/01 07:17:13;;;;;;;13.05;12.45;;;;;;;;;;5421157;26;20060;-68
2024/05/01 07:19:38;;;;;;;13.15;12.55;;;;;;;;;;5382764;26;20077;-68
2024/05/01 07:22:04;;;;;;;13.30;12.70;;;;;;;;;;5414791;26;19988;-68
2024/05/01 07:24:29;;;;;;;13.27;12.68;;;;;;;;;;5414593;26;20096;-70
2024/05/01 07:26:54;;;;;;;13.13;12.52;;;;;;;;;;5414811;26;20003;-67
2024/05/01 07:29:20;;;;;;;12.82;12.23;;;;;;;;;;5407534;26;20476;-69
2024/05/01 07:31:45;;;;;;;13.10;12.50;;;;;;;;;;5424684;26;20084;-68
2024/05/01 07:34:11;;;;;;;13.18;12.57;;;;;;;;;;5420245;26;20049;-68
2024/05/01 07:36:36;;;;;;;13.18;12.57;;;;;;;;;;5400190;26;20003;-69
2024/05/01 07:39:02;;;;;;;13.27;12.68;;;;;;;;;;5405226;26;20451;-68
2024/05/01 07:41:27;;;;;;;13.20;12.60;;;;;;;;;;5414167;26;20352;-69
2024/05/01 07:43:53;;;;;;;12.98;12.38;;;;;;;;;;5414119;26;20007;-68
2024/05/01 07:46:18;;;;;;;13.57;12.98;;;;;;;;;;5406184;26;20006;-67
2024/05/01 07:48:43;;;;;;;13.35;12.75;;;;;;;;;;5407401;26;20026;-68
2024/05/01 07:51:09;;;;;;;13.10;12.50;;;;;;;;;;5415453;26;20072;-69
2024/05/01 07:53:34;;;;;;;12.75;12.15;;;;;;;;;;5423323;26;19995;-69
2024/05/01 07:56:00;;;;;;;13.18;12.57;;;;;;;;;;5414214;26;20006;-69
2024/05/01 07:58:25;;;;;;;12.85;12.25;;;;;;;;;;5404309;26;20011;-69
2024/05/01 08:00:51;;;;;;;13.25;12.65;;;;;;;;;;5410466;26;20390;-69
2024/05/01 08:03:16;;;;;;;13.02;12.43;;;;;;;;;;5397336;26;20445;-69
2024/05/01 08:05:41;;;;;;;13.30;12.70;;;;;;;;;;5388704;26;20002;-69
2024/05/01 08:08:08;;;;;;;13.15;12.55;;;;;;;;;;5407213;26;20538;-69
2024/05/01 08:10:33;;;;;;;12.70;12.10;;;;;;;;;;5413658;26;20007;-69
2024/05/01 08:12:58;;;;;;;12.75;12.15;;;;;;;;;;5382744;26;20010;-70
2024/05/01 08:15:24;;;;;;;13.00;12.40;;;;;;;;;;5382553;26;20068;-69
2024/05/01 08:17:49;;;;;;;13.80;13.20;;;;;;;;;;5406971;26;19991;-67
2024/05/01 08:20:15;;;;;;;13.27;12.68;;;;;;;;;;5410598;26;19999;-69
2024/05/01 08:22:40;;;;;;;13.02;12.43;;;;;;;;;;5413868;26;19998;-69
2024/05/01 08:25:06;;;;;;;12.95;12.35;;;;;;;;;;5414197;26;20014;-69
2024/05/01 08:27:31;;;;;;;13.00;12.40;;;;;;;;;;5424511;26;20506;-69
2024/05/01 08:29:56;;;;;;;12.98;12.38;;;;;;;;;;5413169;26;20499;-68
2024/05/01 08:32:22;;;;;;;12.98;12.38;;;;;;;;;;5405381;26;20007;-69
2024/05/01 08:34:47;;;;;;;12.88;12.27;;;;;;;;;;5413687;26;20456;-70
2024/05/01 08:37:13;;;;;;;13.10;12.50;;;;;;;;;;5381831;26;20007;-66
2024/05/01 08:39:39;;;;;;;12.95;12.35;;;;;;;;;;5390931;26;19996;-67
2024/05/01 08:42:04;;;;;;;13.10;12.50;;;;;;;;;;5420887;26;20011;-68
2024/05/01 08:44:30;;;;;;;13.30;12.70;;;;;;;;;;5413161;26;19991;-68
2024/05/01 08:46:56;;;;;;;12.88;12.27;;;;;;;;;;5413815;26;20459;-69
2024/05/01 08:49:21;;;;;;;13.15;12.55;;;;;;;;;;5409804;26;20063;-70
2024/05/01 08:51:48;;;;;;;13.00;12.40;;;;;;;;;;5381544;26;20006;-68
2024/05/01 08:54:14;;;;;;;13.25;12.65;;;;;;;;;;5390481;26;20003;-67
2024/05/01 08:56:40;;;;;;;12.68;12.07;;;;;;;;;;5411545;26;20002;-68
2024/05/01 08:59:06;;;;;;;12.32;11.82;;;;;;;;;;5411656;26;20014;-68
2024/05/01 09:01:31;;;;;;;12.95;12.35;;;;;;;;;;5413273;26;20456;-68
2024/05/01 09:03:56;;;;;;;12.80;12.20;;;;;;;;;;5412877;26;20022;-68
2024/05/01 09:06:22;;;;;;;13.43;12.82;;;;;;;;;;5402934;26;20011;-67
2024/05/01 09:08:48;;;;;;;13.15;12.55;;;;;;;;;;5409542;26;19996;-68
2024/05/01 09:11:14;;;;;;;12.93;12.32;;;;;;;;;;5413321;26;20006;-69
2024/05/01 09:13:48;;;;;;;12.88;12.27;;;;;;;;;;5388045;26;20455;-69
2024/05/01 09:16:14;;;;;;;12.98;12.38;;;;;;;;;;5417845;26;19999;-69
2024/05/01 09:18:39;;;;;;;12.70;12.10;;;;;;;;;;5410955;26;20004;-68
2024/05/01 09:21:05;;;;;;;12.60;12.00;;;;;;;;;;5403783;26;20015;-67
2024/05/01 09:23:30;;;;;;;12.85;12.25;;;;;;;;;;5416412;26;20012;-68
2024/05/01 09:25:56;;;;;;;12.88;12.27;;;;;;;;;;5416294;26;20000;-67
2024/05/01 09:28:21;;;;;;;12.75;12.15;;;;;;;;;;5413413;26;20000;-68
2024/05/01 09:30:46;;;;;;;13.02;12.43;;;;;;;;;;5411696;26;19999;-68
2024/05/01 09:33:12;;;;;;;13.05;12.45;;;;;;;;;;5414655;26;20004;-68
2024/05/01 09:35:38;;;;;;;12.98;12.38;;;;;;;;;;5416171;26;20010;-66
2024/05/01 09:38:08;;;;;;;12.55;11.95;;;;;;;;;;5384221;26;20363;-68
2024/05/01 09:40:34;;;;;;;13.02;12.43;;;;;;;;;;5393184;26;20000;-69
2024/05/01 09:43:01;;;;;;;12.63;12.02;;;;;;;;;;5401812;26;20014;-69
2024/05/01 09:45:26;;;;;;;13.00;12.40;;;;;;;;;;5416461;26;20000;-68
2024/05/01 09:47:56;;;;;;;12.70;12.10;;;;;;;;;;5416189;26;20339;-67
2024/05/01 09:50:21;;;;;;;13.00;12.40;;;;;;;;;;5409713;26;20463;-68
2024/05/01 09:52:49;;;;;;;12.68;12.07;;;;;;;;;;5389728;26;20000;-68
2024/05/01 09:55:15;;;;;;;12.50;11.95;;;;;;;;;;5405494;26;20010;-69
2024/05/01 09:57:42;;;;;;;12.82;12.23;;;;;;;;;;5419855;26;20023;-68
2024/05/01 10:00:08;;;;;;;12.90;12.30;;;;;;;;;;5411069;26;20007;-69
2024/05/01 10:02:35;;;;;;;12.80;12.20;;;;;;;;;;5414633;26;20003;-69
2024/05/01 10:05:03;;;;;;;12.95;12.35;;;;;;;;;;5401757;26;20004;-69
2024/05/01 10:07:47;;;;;;;12.80;12.20;;;;;;;;;;5416298;26;20089;-69
2024/05/01 10:10:13;;;;;;;12.55;11.95;;;;;;;;;;5408256;26;20014;-68
2024/05/01 10:12:53;;;;;;;12.65;12.05;;;;;;;;;;5415817;26;19995;-68
2024/05/01 10:15:31;;;;;;;12.68;12.07;;;;;;;;;;5412339;26;20018;-68
2024/05/01 10:18:01;;;;;;;12.90;12.30;;;;;;;;;;5415636;26;20003;-68
2024/05/01 10:20:26;;;;;;;12.85;12.25;;;;;;;;;;5409476;26;20106;-68
2024/05/01 10:23:13;;;;;;;13.00;12.40;;;;;;;;;;5383291;26;20011;-67
2024/05/01 10:25:46;;;;;;;12.57;11.98;;;;;;;;;;5416628;26;20031;-67
2024/05/01 10:28:11;;;;;;;12.73;12.13;;;;;;;;;;5433545;26;20094;-68
2024/05/01 10:30:38;;;;;;;12.45;11.88;;;;;;;;;;5384051;26;20402;-69
2024/05/01 10:33:04;;;;;;;12.52;11.93;;;;;;;;;;5407998;26;20014;-70
2024/05/01 10:35:30;;;;;;;12.77;12.18;;;;;;;;;;5429755;26;20376;-69
2024/05/01 10:37:55;;;;;;;12.70;12.10;;;;;;;;;;5384972;26;20011;-68
2024/05/01 10:40:21;;;;;;;12.65;12.05;;;;;;;;;;5406800;26;20415;-69
2024/05/01 10:42:46;;;;;;;12.70;12.10;;;;;;;;;;5425716;26;20468;-69
2024/05/01 10:45:12;;;;;;;12.57;11.98;;;;;;;;;;5383710;26;20341;-69
2024/05/01 10:47:37;;;;;;;12.32;11.80;;;;;;;;;;5415645;26;20084;-68
2024/05/01 10:50:03;;;;;;;12.77;12.18;;;;;;;;;;5412275;26;20006;-68
2024/05/01 10:52:29;;;;;;;12.60;12.00;;;;;;;;;;5415262;26;20468;-68
2024/05/01 10:54:55;;;;;;;12.70;12.10;;;;;;;;;;5414995;26;19999;-68
2024/05/01 10:57:20;;;;;;;12.52;11.95;;;;;;;;;;5414134;26;20041;-68
2024/05/01 10:59:55;;;;;;;12.68;12.07;;;;;;;;;;5412816;26;20371;-68
2024/05/01 11:02:21;;;;;;;12.32;11.77;;;;;;;;;;5414209;26;20464;-68
2024/05/01 11:04:47;;;;;;;12.75;12.15;;;;;;;;;;5414490;26;20000;-68
2024/05/01 11:07:13;;;;;;;12.82;12.23;;;;;;;;;;5407696;26;20007;-68
2024/05/01 11:09:38;;;;;;;12.52;11.93;;;;;;;;;;5398195;26;20099;-67
2024/05/01 11:12:03;;;;;;;12.48;11.90;;;;;;;;;;5414145;26;19995;-68
2024/05/01 11:14:30;;;;;;;12.65;12.05;;;;;;;;;;5384456;26;20011;-68
2024/05/01 11:16:55;;;;;;;12.55;11.95;;;;;;;;;;5426322;26;20003;-68
2024/05/01 11:19:22;;;;;;;12.73;12.13;;;;;;;;;;5413918;26;20337;-68
2024/05/01 11:21:47;;;;;;;12.63;12.02;;;;;;;;;;5398805;26;20000;-67
2024/05/01 11:24:13;;;;;;;12.68;12.07;;;;;;;;;;5401083;26;19999;-69
2024/05/01 11:26:38;;;;;;;12.63;12.02;;;;;;;;;;5414488;26;20004;-69
2024/05/01 11:29:04;;;;;;;12.30;11.80;;;;;;;;;;5425702;26;20011;-67
2024/05/01 11:31:30;;;;;;;12.77;12.18;;;;;;;;;;5405802;26;20044;-68
2024/05/01 11:33:55;;;;;;;12.70;12.10;;;;;;;;;;5413292;26;20000;-68
2024/05/01 11:36:21;;;;;;;12.55;11.95;;;;;;;;;;5381977;26;19999;-67
2024/05/01 11:38:46;;;;;;;12.68;12.07;;;;;;;;;;5413673;26;20356;-67
2024/05/01 11:41:12;;;;;;;12.60;12.02;;;;;;;;;;5408249;26;20022;-68
2024/05/01 11:43:37;;;;;;;12.52;11.95;;;;;;;;;;5390524;26;20019;-68
2024/05/01 11:46:02;;;;;;;12.63;12.02;;;;;;;;;;5413890;26;20363;-68
2024/05/01 11:48:28;;;;;;;12.82;12.23;;;;;;;;;;5406364;26;19996;-68
2024/05/01 11:50:53;;;;;;;12.70;12.10;;;;;;;;;;5407709;26;20464;-68
2024/05/01 11:53:19;;;;;;;12.77;12.18;;;;;;;;;;5416861;26;20004;-69
2024/05/01 11:55:44;;;;;;;12.63;12.02;;;;;;;;;;5392100;26;20007;-68
2024/05/01 11:58:11;;;;;;;12.70;12.10;;;;;;;;;;5388327;26;20003;-68
2024/05/01 12:00:37;;;;;;;12.63;12.02;;;;;;;;;;5420690;26;20001;-69
2024/05/01 12:03:06;;;;;;;12.70;12.10;;;;;;;;;;5410584;26;20000;-69
2024/05/01 12:05:32;;;;;;;12.60;12.00;;;;;;;;;;5412153;26;20007;-69
2024/05/01 12:08:04;;;;;;;12.60;12.00;;;;;;;;;;5416638;26;20015;-67
2024/05/01 12:10:30;;;;;;;12.85;12.25;;;;;;;;;;5411894;26;20003;-67
2024/05/01 12:12:57;;;;;;;12.65;12.05;;;;;;;;;;5374425;26;20487;-68
2024/05/01 12:15:23;;;;;;;12.70;12.10;;;;;;;;;;5414048;26;20003;-67
2024/05/01 12:17:48;;;;;;;12.98;12.38;;;;;;;;;;5413559;26;20005;-69
2024/05/01 12:20:14;;;;;;;12.77;12.18;;;;;;;;;;5407069;26;20476;-69
2024/05/01 12:22:39;;;;;;;12.77;12.18;;;;;;;;;;5415158;26;20076;-68
2024/05/01 12:25:05;;;;;;;12.52;11.93;;;;;;;;;;5408004;26;20014;-68
2024/05/01 12:27:30;;;;;;;12.60;12.00;;;;;;;;;;5414052;26;19987;-69
2024/05/01 12:29:55;;;;;;;12.43;11.90;;;;;;;;;;5402156;26;19992;-69
2024/05/01 12:32:36;;;;;;;12.82;12.23;;;;;;;;;;5396294;26;20004;-68
2024/05/01 12:35:02;;;;;;;12.80;12.20;;;;;;;;;;5384340;26;20003;-68
2024/05/01 12:37:30;;;;;;;13.07;12.48;;;;;;;;;;5381072;26;19999;-69
2024/05/01 12:39:56;;;;;;;12.32;11.82;;;;;;;;;;5422190;26;20027;-70
2024/05/01 12:42:23;;;;;;;12.60;12.00;;;;;;;;;;5405353;26;20007;-68
2024/05/01 12:44:48;;;;;;;12.60;12.00;;;;;;;;;;5407915;26;19999;-69
2024/05/01 12:47:15;;;;;;;12.52;11.95;;;;;;;;;;5413266;26;20003;-69
2024/05/01 12:49:40;;;;;;;12.57;12.00;;;;;;;;;;5412835;26;20015;-69
2024/05/01 12:52:23;;;;;;;12.63;12.02;;;;;;;;;;5399170;26;20711;-68
2024/05/01 12:54:49;;;;;;;12.70;12.10;;;;;;;;;;5393272;26;20077;-68
2024/05/01 12:57:15;;;;;;;12.80;12.20;;;;;;;;;;5423979;26;19995;-69
2024/05/01 12:59:47;;;;;;;12.77;12.18;;;;;;;;;;5406331;26;20004;-68
2024/05/01 13:02:18;;;;;;;12.52;11.95;;;;;;;;;;5406034;26;20076;-69
2024/05/01 13:04:48;;;;;;;12.52;11.93;;;;;;;;;;5418049;26;20010;-68
2024/05/01 13:07:23;;;;;;;12.70;12.10;;;;;;;;;;5413511;26;20014;-67
2024/05/01 13:09:48;;;;;;;12.63;12.02;;;;;;;;;;5413425;26;19999;-68
2024/05/01 13:12:16;;;;;;;12.90;12.30;;;;;;;;;;5381107;26;20467;-68
2024/05/01 13:14:41;;;;;;;12.73;12.13;;;;;;;;;;5413905;26;20007;-68
2024/05/01 13:17:06;;;;;;;12.88;12.27;;;;;;;;;;5412289;26;20000;-69
2024/05/01 13:19:34;;;;;;;12.57;11.98;;;;;;;;;;5412515;26;20470;-68
2024/05/01 13:22:18;;;;;;;12.27;11.77;;;;;;;;;;5392069;26;20011;-69
2024/05/01 13:24:43;;;;;;;12.40;11.85;;;;;;;;;;5406114;26;20015;-68
2024/05/01 13:27:25;;;;;;;12.27;11.77;;;;;;;;;;5359726;26;20579;-68
2024/05/01 13:29:51;;;;;;;12.77;12.18;;;;;;;;;;5410242;26;20084;-69
2024/05/01 13:32:31;;;;;;;12.32;11.82;;;;;;;;;;5406892;26;20043;-68
2024/05/01 13:34:59;;;;;;;12.80;12.20;;;;;;;;;;5412732;26;20008;-69
2024/05/01 13:37:33;;;;;;;12.80;12.20;;;;;;;;;;5411832;26;20007;-69
2024/05/01 13:39:59;;;;;;;12.60;12.00;;;;;;;;;;5410653;26;20472;-70
2024/05/01 13:42:27;;;;;;;12.82;12.23;;;;;;;;;;5374994;26;20081;-69
2024/05/01 13:44:53;;;;;;;12.57;11.98;;;;;;;;;;5412426;26;20003;-69
2024/05/01 13:47:30;;;;;;;12.45;11.88;;;;;;;;;;5408028;26;20014;-69
2024/05/01 13:49:59;;;;;;;12.70;12.10;;;;;;;;;;5399502;26;20018;-69
2024/05/01 13:52:25;;;;;;;12.65;12.05;;;;;;;;;;5413405;26;20011;-68
2024/05/01 13:54:50;;;;;;;12.48;11.90;;;;;;;;;;5384075;26;20465;-67
2024/05/01 13:57:42;;;;;;;12.07;11.57;;;;;;;;;;5436338;26;19999;-68
2024/05/01 14:00:07;;;;;;;12.75;12.15;;;;;;;;;;5400763;26;20027;-69
2024/05/01 14:02:35;;;;;;;12.60;12.00;;;;;;;;;;5411607;26;20471;-67
2024/05/01 14:05:04;;;;;;;12.50;11.90;;;;;;;;;;5405551;26;20014;-68
2024/05/01 14:07:29;;;;;;;12.35;11.85;;;;;;;;;;5416257;26;20098;-68
2024/05/01 14:09:54;;;;;;;12.50;11.90;;;;;;;;;;5383544;26;20519;-68